sensor_id;sensor_type;location;lat;lon;timestamp;P1;durP1;ratioP1;P2;durP2;ratioP2
5758;SDS011;2904;48.788;9.196;2022-09-11T00:01:03;4.05;;;1.83;;
5758;SDS011;2904;48.788;9.196;2022-09-11T00:03:30;2.40;;;1.50;;
5758;SDS011;2904;48.788;9.196;2022-09-11T00:06:00;1.85;;;1.42;;
5758;SDS011;2904;48.788;9.196;2022-09-11T00:08:26;4.28;;;1.50;;
5758;SDS011;2904;48.788;9.196;2022-09-11T00:10:52;2.40;;;1.48;;
5758;SDS011;2904;48.788;9.196;2022-09-11T00:13:19;2.47;;;1.40;;
5758;SDS011;2904;48.788;9.196;2022-09-11T00:15:46;3.20;;;1.48;;
5758;SDS011;2904;48.788;9.196;2022-09-11T00:18:13;3.75;;;1.70;;
5758;SDS011;2904;48.788;9.196;2022-09-11T00:20:45;2.87;;;1.48;;
5758;SDS011;2904;48.788;9.196;2022-09-11T00:23:13;8.90;;;1.50;;
5758;SDS011;2904;48.788;9.196;2022-09-11T00:25:41;6.15;;;2.10;;
5758;SDS011;2904;48.788;9.196;2022-09-11T00:28:29;3.60;;;2.08;;
5758;SDS011;2904;48.788;9.196;2022-09-11T00:31:02;3.00;;;1.60;;
5758;SDS011;2904;48.788;9.196;2022-09-11T00:33:29;2.17;;;1.45;;
5758;SDS011;2904;48.788;9.196;2022-09-11T00:35:59;2.00;;;1.60;;
5758;SDS011;2904;48.788;9.196;2022-09-11T00:38:26;2.05;;;1.48;;
5758;SDS011;2904;48.788;9.196;2022-09-11T00:40:54;2.10;;;1.48;;
5758;SDS011;2904;48.788;9.196;2022-09-11T00:43:20;4.90;;;1.60;;
5758;SDS011;2904;48.788;9.196;2022-09-11T00:45:47;2.45;;;1.65;;
5758;SDS011;2904;48.788;9.196;2022-09-11T00:48:20;3.30;;;1.65;;
5758;SDS011;2904;48.788;9.196;2022-09-11T00:50:46;1.30;;;1.20;;
5758;SDS011;2904;48.788;9.196;2022-09-11T00:53:14;1.87;;;1.45;;
5758;SDS011;2904;48.788;9.196;2022-09-11T00:55:43;1.58;;;1.35;;
5758;SDS011;2904;48.788;9.196;2022-09-11T00:58:14;2.17;;;1.50;;
5758;SDS011;2904;48.788;9.196;2022-09-11T01:00:44;2.87;;;1.77;;
5758;SDS011;2904;48.788;9.196;2022-09-11T01:03:10;2.05;;;1.50;;
5758;SDS011;2904;48.788;9.196;2022-09-11T01:05:38;2.22;;;1.58;;
5758;SDS011;2904;48.788;9.196;2022-09-11T01:08:05;1.62;;;1.48;;
5758;SDS011;2904;48.788;9.196;2022-09-11T01:10:37;2.58;;;1.65;;
5758;SDS011;2904;48.788;9.196;2022-09-11T01:13:15;2.28;;;1.50;;
5758;SDS011;2904;48.788;9.196;2022-09-11T01:15:56;5.30;;;1.67;;
5758;SDS011;2904;48.788;9.196;2022-09-11T01:18:30;4.25;;;1.77;;
5758;SDS011;2904;48.788;9.196;2022-09-11T01:24:22;2.05;;;1.40;;
5758;SDS011;2904;48.788;9.196;2022-09-11T01:26:59;4.97;;;1.30;;
5758;SDS011;2904;48.788;9.196;2022-09-11T01:30:17;3.83;;;1.35;;
5758;SDS011;2904;48.788;9.196;2022-09-11T01:33:04;2.33;;;1.50;;
5758;SDS011;2904;48.788;9.196;2022-09-11T01:41:40;3.20;;;1.33;;
5758;SDS011;2904;48.788;9.196;2022-09-11T01:44:12;2.35;;;1.48;;
5758;SDS011;2904;48.788;9.196;2022-09-11T01:46:43;1.98;;;1.58;;
5758;SDS011;2904;48.788;9.196;2022-09-11T01:49:11;3.08;;;1.60;;
5758;SDS011;2904;48.788;9.196;2022-09-11T01:51:39;3.60;;;1.58;;
5758;SDS011;2904;48.788;9.196;2022-09-11T01:54:12;3.63;;;1.90;;
5758;SDS011;2904;48.788;9.196;2022-09-11T01:56:40;1.75;;;1.50;;
5758;SDS011;2904;48.788;9.196;2022-09-11T01:59:09;3.33;;;1.60;;
5758;SDS011;2904;48.788;9.196;2022-09-11T02:01:39;5.07;;;1.48;;
5758;SDS011;2904;48.788;9.196;2022-09-11T02:04:12;3.80;;;1.55;;
5758;SDS011;2904;48.788;9.196;2022-09-11T02:06:42;3.00;;;2.30;;
5758;SDS011;2904;48.788;9.196;2022-09-11T02:09:15;5.57;;;1.40;;
5758;SDS011;2904;48.788;9.196;2022-09-11T02:11:43;2.25;;;1.40;;
5758;SDS011;2904;48.788;9.196;2022-09-11T02:14:26;1.98;;;1.60;;
5758;SDS011;2904;48.788;9.196;2022-09-11T02:17:04;1.77;;;1.65;;
5758;SDS011;2904;48.788;9.196;2022-09-11T02:19:51;5.28;;;1.80;;
5758;SDS011;2904;48.788;9.196;2022-09-11T02:22:18;5.32;;;1.90;;
5758;SDS011;2904;48.788;9.196;2022-09-11T02:24:44;3.35;;;1.55;;
5758;SDS011;2904;48.788;9.196;2022-09-11T02:27:11;4.47;;;1.85;;
5758;SDS011;2904;48.788;9.196;2022-09-11T02:29:40;5.62;;;1.90;;
5758;SDS011;2904;48.788;9.196;2022-09-11T02:32:07;2.75;;;1.77;;
5758;SDS011;2904;48.788;9.196;2022-09-11T02:34:35;8.52;;;1.90;;
5758;SDS011;2904;48.788;9.196;2022-09-11T02:41:10;4.40;;;1.77;;
5758;SDS011;2904;48.788;9.196;2022-09-11T02:43:48;2.47;;;1.80;;
5758;SDS011;2904;48.788;9.196;2022-09-11T02:46:39;4.37;;;1.85;;
5758;SDS011;2904;48.788;9.196;2022-09-11T02:54:23;3.23;;;1.70;;
5758;SDS011;2904;48.788;9.196;2022-09-11T02:57:06;2.28;;;1.58;;
5758;SDS011;2904;48.788;9.196;2022-09-11T02:59:41;5.78;;;1.90;;
5758;SDS011;2904;48.788;9.196;2022-09-11T03:02:13;3.00;;;1.70;;
5758;SDS011;2904;48.788;9.196;2022-09-11T03:04:40;7.97;;;1.98;;
5758;SDS011;2904;48.788;9.196;2022-09-11T03:07:06;2.83;;;1.95;;
5758;SDS011;2904;48.788;9.196;2022-09-11T03:09:33;3.92;;;1.67;;
5758;SDS011;2904;48.788;9.196;2022-09-11T03:11:59;4.30;;;1.95;;
5758;SDS011;2904;48.788;9.196;2022-09-11T03:14:25;3.42;;;1.95;;
5758;SDS011;2904;48.788;9.196;2022-09-11T03:16:52;6.70;;;1.98;;
5758;SDS011;2904;48.788;9.196;2022-09-11T03:19:19;3.22;;;1.80;;
5758;SDS011;2904;48.788;9.196;2022-09-11T03:21:45;2.00;;;1.80;;
5758;SDS011;2904;48.788;9.196;2022-09-11T03:24:10;2.85;;;1.65;;
5758;SDS011;2904;48.788;9.196;2022-09-11T03:26:37;3.83;;;1.95;;
5758;SDS011;2904;48.788;9.196;2022-09-11T03:29:03;3.50;;;1.80;;
5758;SDS011;2904;48.788;9.196;2022-09-11T03:31:29;3.28;;;1.85;;
5758;SDS011;2904;48.788;9.196;2022-09-11T03:33:55;2.80;;;1.98;;
5758;SDS011;2904;48.788;9.196;2022-09-11T03:36:21;4.45;;;2.20;;
5758;SDS011;2904;48.788;9.196;2022-09-11T03:38:47;6.18;;;2.12;;
5758;SDS011;2904;48.788;9.196;2022-09-11T03:41:14;4.65;;;2.20;;
5758;SDS011;2904;48.788;9.196;2022-09-11T03:43:40;5.43;;;2.30;;
5758;SDS011;2904;48.788;9.196;2022-09-11T03:46:05;3.85;;;2.33;;
5758;SDS011;2904;48.788;9.196;2022-09-11T03:48:31;3.90;;;2.20;;
5758;SDS011;2904;48.788;9.196;2022-09-11T03:50:57;3.40;;;2.42;;
5758;SDS011;2904;48.788;9.196;2022-09-11T03:53:24;4.62;;;2.47;;
5758;SDS011;2904;48.788;9.196;2022-09-11T03:55:50;3.70;;;2.30;;
5758;SDS011;2904;48.788;9.196;2022-09-11T03:58:16;5.03;;;2.80;;
5758;SDS011;2904;48.788;9.196;2022-09-11T04:00:45;2.80;;;2.60;;
5758;SDS011;2904;48.788;9.196;2022-09-11T04:03:12;2.85;;;2.55;;
5758;SDS011;2904;48.788;9.196;2022-09-11T04:05:42;4.62;;;3.20;;
5758;SDS011;2904;48.788;9.196;2022-09-11T04:08:19;5.35;;;3.45;;
5758;SDS011;2904;48.788;9.196;2022-09-11T04:10:45;5.40;;;3.58;;
5758;SDS011;2904;48.788;9.196;2022-09-11T04:13:10;5.32;;;3.20;;
5758;SDS011;2904;48.788;9.196;2022-09-11T04:15:36;6.60;;;3.10;;
5758;SDS011;2904;48.788;9.196;2022-09-11T04:18:04;5.17;;;3.57;;
5758;SDS011;2904;48.788;9.196;2022-09-11T04:20:31;4.10;;;3.47;;
5758;SDS011;2904;48.788;9.196;2022-09-11T04:22:57;3.40;;;3.00;;
5758;SDS011;2904;48.788;9.196;2022-09-11T04:25:23;4.97;;;3.42;;
5758;SDS011;2904;48.788;9.196;2022-09-11T04:27:49;5.70;;;3.15;;
5758;SDS011;2904;48.788;9.196;2022-09-11T04:30:15;10.18;;;4.30;;
5758;SDS011;2904;48.788;9.196;2022-09-11T04:32:41;4.57;;;4.00;;
5758;SDS011;2904;48.788;9.196;2022-09-11T04:35:08;6.05;;;3.30;;
5758;SDS011;2904;48.788;9.196;2022-09-11T04:37:34;5.37;;;3.72;;
5758;SDS011;2904;48.788;9.196;2022-09-11T04:40:00;5.90;;;3.53;;
5758;SDS011;2904;48.788;9.196;2022-09-11T04:42:26;5.62;;;3.70;;
5758;SDS011;2904;48.788;9.196;2022-09-11T04:44:52;5.43;;;3.47;;
5758;SDS011;2904;48.788;9.196;2022-09-11T04:47:18;4.85;;;4.32;;
5758;SDS011;2904;48.788;9.196;2022-09-11T04:49:45;3.85;;;3.55;;
5758;SDS011;2904;48.788;9.196;2022-09-11T04:52:11;6.18;;;4.07;;
5758;SDS011;2904;48.788;9.196;2022-09-11T04:54:37;5.12;;;3.83;;
5758;SDS011;2904;48.788;9.196;2022-09-11T04:57:03;6.40;;;3.85;;
5758;SDS011;2904;48.788;9.196;2022-09-11T04:59:29;5.40;;;4.00;;
5758;SDS011;2904;48.788;9.196;2022-09-11T05:01:55;5.32;;;3.95;;
5758;SDS011;2904;48.788;9.196;2022-09-11T05:04:20;4.82;;;3.47;;
5758;SDS011;2904;48.788;9.196;2022-09-11T05:06:46;6.00;;;3.80;;
5758;SDS011;2904;48.788;9.196;2022-09-11T05:09:13;7.47;;;4.62;;
5758;SDS011;2904;48.788;9.196;2022-09-11T05:11:39;6.68;;;3.85;;
5758;SDS011;2904;48.788;9.196;2022-09-11T05:14:06;8.25;;;3.92;;
5758;SDS011;2904;48.788;9.196;2022-09-11T05:16:33;5.90;;;4.37;;
5758;SDS011;2904;48.788;9.196;2022-09-11T05:19:00;5.45;;;4.07;;
5758;SDS011;2904;48.788;9.196;2022-09-11T05:21:28;6.05;;;4.35;;
5758;SDS011;2904;48.788;9.196;2022-09-11T05:23:56;7.15;;;4.72;;
5758;SDS011;2904;48.788;9.196;2022-09-11T05:26:26;8.32;;;3.92;;
5758;SDS011;2904;48.788;9.196;2022-09-11T05:28:53;5.65;;;4.50;;
5758;SDS011;2904;48.788;9.196;2022-09-11T05:31:20;5.72;;;3.53;;
5758;SDS011;2904;48.788;9.196;2022-09-11T05:33:47;8.15;;;4.35;;
5758;SDS011;2904;48.788;9.196;2022-09-11T05:36:13;8.20;;;4.25;;
5758;SDS011;2904;48.788;9.196;2022-09-11T05:38:40;7.05;;;4.80;;
5758;SDS011;2904;48.788;9.196;2022-09-11T05:41:08;7.43;;;4.47;;
5758;SDS011;2904;48.788;9.196;2022-09-11T05:43:35;5.15;;;4.55;;
5758;SDS011;2904;48.788;9.196;2022-09-11T05:46:02;5.87;;;4.43;;
5758;SDS011;2904;48.788;9.196;2022-09-11T05:48:28;9.02;;;5.68;;
5758;SDS011;2904;48.788;9.196;2022-09-11T05:50:59;7.40;;;4.20;;
5758;SDS011;2904;48.788;9.196;2022-09-11T05:53:26;5.72;;;4.50;;
5758;SDS011;2904;48.788;9.196;2022-09-11T05:55:53;7.35;;;4.55;;
5758;SDS011;2904;48.788;9.196;2022-09-11T05:58:24;4.70;;;3.78;;
5758;SDS011;2904;48.788;9.196;2022-09-11T06:00:50;5.65;;;4.30;;
5758;SDS011;2904;48.788;9.196;2022-09-11T06:03:16;6.03;;;4.28;;
5758;SDS011;2904;48.788;9.196;2022-09-11T06:05:45;4.12;;;3.72;;
5758;SDS011;2904;48.788;9.196;2022-09-11T06:08:11;6.40;;;4.12;;
5758;SDS011;2904;48.788;9.196;2022-09-11T06:10:42;5.25;;;4.40;;
5758;SDS011;2904;48.788;9.196;2022-09-11T06:13:12;6.50;;;4.32;;
5758;SDS011;2904;48.788;9.196;2022-09-11T06:15:44;7.15;;;4.45;;
5758;SDS011;2904;48.788;9.196;2022-09-11T06:18:11;5.68;;;4.35;;
5758;SDS011;2904;48.788;9.196;2022-09-11T06:20:37;6.78;;;3.95;;
5758;SDS011;2904;48.788;9.196;2022-09-11T06:23:02;8.07;;;4.68;;
5758;SDS011;2904;48.788;9.196;2022-09-11T06:25:28;6.65;;;4.43;;
5758;SDS011;2904;48.788;9.196;2022-09-11T06:27:54;7.65;;;4.53;;
5758;SDS011;2904;48.788;9.196;2022-09-11T06:30:20;5.70;;;4.97;;
5758;SDS011;2904;48.788;9.196;2022-09-11T06:32:48;8.57;;;4.72;;
5758;SDS011;2904;48.788;9.196;2022-09-11T06:35:15;6.82;;;5.05;;
5758;SDS011;2904;48.788;9.196;2022-09-11T06:37:40;8.57;;;5.60;;
5758;SDS011;2904;48.788;9.196;2022-09-11T06:40:07;9.55;;;4.72;;
5758;SDS011;2904;48.788;9.196;2022-09-11T06:42:33;7.85;;;5.22;;
5758;SDS011;2904;48.788;9.196;2022-09-11T06:44:58;6.68;;;5.30;;
5758;SDS011;2904;48.788;9.196;2022-09-11T06:47:24;6.03;;;5.03;;
5758;SDS011;2904;48.788;9.196;2022-09-11T06:49:50;5.82;;;5.10;;
5758;SDS011;2904;48.788;9.196;2022-09-11T06:52:16;6.70;;;4.60;;
5758;SDS011;2904;48.788;9.196;2022-09-11T06:54:42;6.53;;;5.15;;
5758;SDS011;2904;48.788;9.196;2022-09-11T06:57:08;6.90;;;4.75;;
5758;SDS011;2904;48.788;9.196;2022-09-11T06:59:34;7.80;;;5.20;;
5758;SDS011;2904;48.788;9.196;2022-09-11T07:01:59;7.95;;;5.65;;
5758;SDS011;2904;48.788;9.196;2022-09-11T07:04:25;6.45;;;5.05;;
5758;SDS011;2904;48.788;9.196;2022-09-11T07:06:52;7.05;;;5.37;;
5758;SDS011;2904;48.788;9.196;2022-09-11T07:09:18;8.73;;;5.32;;
5758;SDS011;2904;48.788;9.196;2022-09-11T07:11:45;6.37;;;5.03;;
5758;SDS011;2904;48.788;9.196;2022-09-11T07:14:11;7.93;;;5.25;;
5758;SDS011;2904;48.788;9.196;2022-09-11T07:16:37;7.43;;;5.40;;
5758;SDS011;2904;48.788;9.196;2022-09-11T07:19:02;7.68;;;5.37;;
5758;SDS011;2904;48.788;9.196;2022-09-11T07:21:29;12.52;;;5.72;;
5758;SDS011;2904;48.788;9.196;2022-09-11T07:23:55;9.02;;;5.40;;
5758;SDS011;2904;48.788;9.196;2022-09-11T07:26:24;10.65;;;5.05;;
5758;SDS011;2904;48.788;9.196;2022-09-11T07:28:52;11.02;;;4.80;;
5758;SDS011;2904;48.788;9.196;2022-09-11T07:31:26;6.20;;;5.60;;
5758;SDS011;2904;48.788;9.196;2022-09-11T07:33:54;6.43;;;5.10;;
5758;SDS011;2904;48.788;9.196;2022-09-11T07:36:24;6.85;;;5.65;;
5758;SDS011;2904;48.788;9.196;2022-09-11T07:38:52;7.37;;;5.72;;
5758;SDS011;2904;48.788;9.196;2022-09-11T07:41:19;7.87;;;5.10;;
5758;SDS011;2904;48.788;9.196;2022-09-11T07:43:46;6.68;;;5.07;;
5758;SDS011;2904;48.788;9.196;2022-09-11T07:46:15;6.35;;;5.57;;
5758;SDS011;2904;48.788;9.196;2022-09-11T07:48:41;6.68;;;5.65;;
5758;SDS011;2904;48.788;9.196;2022-09-11T07:51:07;9.23;;;5.95;;
5758;SDS011;2904;48.788;9.196;2022-09-11T07:53:45;10.45;;;5.85;;
5758;SDS011;2904;48.788;9.196;2022-09-11T07:56:12;8.82;;;5.47;;
5758;SDS011;2904;48.788;9.196;2022-09-11T07:58:40;8.18;;;5.70;;
5758;SDS011;2904;48.788;9.196;2022-09-11T08:01:07;9.05;;;5.93;;
5758;SDS011;2904;48.788;9.196;2022-09-11T08:03:36;9.35;;;5.62;;
5758;SDS011;2904;48.788;9.196;2022-09-11T08:06:03;8.35;;;5.80;;
5758;SDS011;2904;48.788;9.196;2022-09-11T08:08:31;6.90;;;5.12;;
5758;SDS011;2904;48.788;9.196;2022-09-11T08:11:00;10.63;;;5.57;;
5758;SDS011;2904;48.788;9.196;2022-09-11T08:13:27;7.22;;;5.47;;
5758;SDS011;2904;48.788;9.196;2022-09-11T08:15:53;6.87;;;5.57;;
5758;SDS011;2904;48.788;9.196;2022-09-11T08:18:20;6.00;;;5.40;;
5758;SDS011;2904;48.788;9.196;2022-09-11T08:20:49;9.50;;;5.47;;
5758;SDS011;2904;48.788;9.196;2022-09-11T08:23:14;7.12;;;5.07;;
5758;SDS011;2904;48.788;9.196;2022-09-11T08:25:40;7.05;;;4.82;;
5758;SDS011;2904;48.788;9.196;2022-09-11T08:28:06;9.35;;;5.55;;
5758;SDS011;2904;48.788;9.196;2022-09-11T08:30:33;6.43;;;4.90;;
5758;SDS011;2904;48.788;9.196;2022-09-11T08:33:05;6.53;;;5.00;;
5758;SDS011;2904;48.788;9.196;2022-09-11T08:35:32;9.55;;;5.43;;
5758;SDS011;2904;48.788;9.196;2022-09-11T08:37:59;6.22;;;4.87;;
5758;SDS011;2904;48.788;9.196;2022-09-11T08:40:27;8.13;;;5.97;;
5758;SDS011;2904;48.788;9.196;2022-09-11T08:42:54;5.72;;;5.12;;
5758;SDS011;2904;48.788;9.196;2022-09-11T08:45:22;9.18;;;5.50;;
5758;SDS011;2904;48.788;9.196;2022-09-11T08:47:52;7.75;;;5.72;;
5758;SDS011;2904;48.788;9.196;2022-09-11T08:50:35;6.72;;;5.70;;
5758;SDS011;2904;48.788;9.196;2022-09-11T08:53:05;9.52;;;6.05;;
5758;SDS011;2904;48.788;9.196;2022-09-11T08:55:41;9.15;;;6.65;;
5758;SDS011;2904;48.788;9.196;2022-09-11T08:58:15;7.55;;;6.45;;
5758;SDS011;2904;48.788;9.196;2022-09-11T09:01:06;9.20;;;6.03;;
5758;SDS011;2904;48.788;9.196;2022-09-11T09:04:05;15.10;;;6.80;;
5758;SDS011;2904;48.788;9.196;2022-09-11T09:08:15;9.05;;;6.35;;
5758;SDS011;2904;48.788;9.196;2022-09-11T09:11:28;9.02;;;6.40;;
5758;SDS011;2904;48.788;9.196;2022-09-11T09:17:11;11.75;;;6.30;;
5758;SDS011;2904;48.788;9.196;2022-09-11T09:20:07;8.63;;;5.10;;
5758;SDS011;2904;48.788;9.196;2022-09-11T09:24:26;6.55;;;4.95;;
5758;SDS011;2904;48.788;9.196;2022-09-11T09:26:53;8.52;;;4.45;;
5758;SDS011;2904;48.788;9.196;2022-09-11T09:29:21;5.28;;;4.50;;
5758;SDS011;2904;48.788;9.196;2022-09-11T09:31:49;4.75;;;4.35;;
5758;SDS011;2904;48.788;9.196;2022-09-11T09:34:17;5.87;;;4.35;;
5758;SDS011;2904;48.788;9.196;2022-09-11T09:36:51;5.30;;;4.10;;
5758;SDS011;2904;48.788;9.196;2022-09-11T09:39:20;6.45;;;4.68;;
5758;SDS011;2904;48.788;9.196;2022-09-11T09:47:20;5.97;;;4.25;;
5758;SDS011;2904;48.788;9.196;2022-09-11T09:49:47;8.07;;;4.07;;
5758;SDS011;2904;48.788;9.196;2022-09-11T09:52:22;6.25;;;4.57;;
5758;SDS011;2904;48.788;9.196;2022-09-11T09:54:58;9.07;;;5.22;;
5758;SDS011;2904;48.788;9.196;2022-09-11T09:57:32;10.02;;;5.10;;
5758;SDS011;2904;48.788;9.196;2022-09-11T10:00:24;9.25;;;4.97;;
5758;SDS011;2904;48.788;9.196;2022-09-11T10:02:51;5.75;;;4.70;;
5758;SDS011;2904;48.788;9.196;2022-09-11T10:05:31;5.55;;;4.78;;
5758;SDS011;2904;48.788;9.196;2022-09-11T10:08:02;5.35;;;4.85;;
5758;SDS011;2904;48.788;9.196;2022-09-11T10:10:35;5.57;;;5.05;;
5758;SDS011;2904;48.788;9.196;2022-09-11T10:13:06;23.23;;;4.90;;
5758;SDS011;2904;48.788;9.196;2022-09-11T10:15:43;12.05;;;7.43;;
5758;SDS011;2904;48.788;9.196;2022-09-11T10:18:22;6.68;;;4.60;;
5758;SDS011;2904;48.788;9.196;2022-09-11T10:21:25;5.50;;;4.32;;
5758;SDS011;2904;48.788;9.196;2022-09-11T10:23:55;6.87;;;4.40;;
5758;SDS011;2904;48.788;9.196;2022-09-11T10:26:23;6.45;;;5.20;;
5758;SDS011;2904;48.788;9.196;2022-09-11T10:29:18;7.15;;;4.72;;
5758;SDS011;2904;48.788;9.196;2022-09-11T10:31:50;6.75;;;4.57;;
5758;SDS011;2904;48.788;9.196;2022-09-11T10:34:18;7.22;;;5.07;;
5758;SDS011;2904;48.788;9.196;2022-09-11T10:37:21;6.43;;;5.00;;
5758;SDS011;2904;48.788;9.196;2022-09-11T10:39:48;9.43;;;4.97;;
5758;SDS011;2904;48.788;9.196;2022-09-11T10:42:18;6.78;;;5.28;;
5758;SDS011;2904;48.788;9.196;2022-09-11T10:44:47;5.70;;;4.80;;
5758;SDS011;2904;48.788;9.196;2022-09-11T10:47:22;11.68;;;5.35;;
5758;SDS011;2904;48.788;9.196;2022-09-11T10:49:49;7.15;;;4.93;;
5758;SDS011;2904;48.788;9.196;2022-09-11T10:52:17;8.82;;;5.20;;
5758;SDS011;2904;48.788;9.196;2022-09-11T10:59:04;6.93;;;5.80;;
5758;SDS011;2904;48.788;9.196;2022-09-11T11:01:37;6.87;;;4.62;;
5758;SDS011;2904;48.788;9.196;2022-09-11T11:04:03;7.65;;;5.20;;
5758;SDS011;2904;48.788;9.196;2022-09-11T11:16:16;5.70;;;4.53;;
5758;SDS011;2904;48.788;9.196;2022-09-11T11:37:10;5.80;;;4.85;;
5758;SDS011;2904;48.788;9.196;2022-09-11T11:39:56;5.65;;;4.90;;
5758;SDS011;2904;48.788;9.196;2022-09-11T11:42:50;5.20;;;4.12;;
5758;SDS011;2904;48.788;9.196;2022-09-11T11:45:28;5.68;;;4.55;;
5758;SDS011;2904;48.788;9.196;2022-09-11T11:47:57;5.37;;;4.30;;
5758;SDS011;2904;48.788;9.196;2022-09-11T11:50:29;9.20;;;4.75;;
5758;SDS011;2904;48.788;9.196;2022-09-11T11:53:30;5.80;;;4.15;;
5758;SDS011;2904;48.788;9.196;2022-09-11T11:56:13;6.50;;;4.53;;
5758;SDS011;2904;48.788;9.196;2022-09-11T11:58:52;4.87;;;4.18;;
5758;SDS011;2904;48.788;9.196;2022-09-11T12:01:39;4.05;;;3.60;;
5758;SDS011;2904;48.788;9.196;2022-09-11T12:08:13;5.97;;;4.03;;
5758;SDS011;2904;48.788;9.196;2022-09-11T12:10:41;5.35;;;3.85;;
5758;SDS011;2904;48.788;9.196;2022-09-11T12:13:12;6.35;;;3.95;;
5758;SDS011;2904;48.788;9.196;2022-09-11T12:15:42;4.05;;;3.65;;
5758;SDS011;2904;48.788;9.196;2022-09-11T12:18:39;4.85;;;4.43;;
5758;SDS011;2904;48.788;9.196;2022-09-11T12:35:11;6.35;;;4.35;;
5758;SDS011;2904;48.788;9.196;2022-09-11T12:43:27;13.57;;;6.75;;
5758;SDS011;2904;48.788;9.196;2022-09-11T12:45:54;7.47;;;4.97;;
5758;SDS011;2904;48.788;9.196;2022-09-11T12:48:31;5.15;;;4.32;;
5758;SDS011;2904;48.788;9.196;2022-09-11T12:51:01;8.63;;;5.28;;
5758;SDS011;2904;48.788;9.196;2022-09-11T12:53:29;8.18;;;5.50;;
5758;SDS011;2904;48.788;9.196;2022-09-11T12:56:00;6.03;;;5.20;;
5758;SDS011;2904;48.788;9.196;2022-09-11T12:58:38;5.68;;;4.65;;
5758;SDS011;2904;48.788;9.196;2022-09-11T13:01:16;5.05;;;4.32;;
5758;SDS011;2904;48.788;9.196;2022-09-11T13:03:46;5.60;;;4.15;;
5758;SDS011;2904;48.788;9.196;2022-09-11T13:07:00;5.62;;;4.20;;
5758;SDS011;2904;48.788;9.196;2022-09-11T13:09:29;5.95;;;4.15;;
5758;SDS011;2904;48.788;9.196;2022-09-11T13:12:46;6.75;;;4.47;;
5758;SDS011;2904;48.788;9.196;2022-09-11T13:15:30;4.57;;;4.10;;
5758;SDS011;2904;48.788;9.196;2022-09-11T13:18:14;6.30;;;4.68;;
5758;SDS011;2904;48.788;9.196;2022-09-11T13:20:58;6.18;;;4.32;;
5758;SDS011;2904;48.788;9.196;2022-09-11T13:23:38;5.90;;;4.75;;
5758;SDS011;2904;48.788;9.196;2022-09-11T13:26:07;6.62;;;4.07;;
5758;SDS011;2904;48.788;9.196;2022-09-11T13:28:49;8.20;;;4.68;;
5758;SDS011;2904;48.788;9.196;2022-09-11T13:31:19;4.70;;;4.18;;
5758;SDS011;2904;48.788;9.196;2022-09-11T13:33:47;5.15;;;4.65;;
5758;SDS011;2904;48.788;9.196;2022-09-11T13:36:15;6.80;;;4.45;;
5758;SDS011;2904;48.788;9.196;2022-09-11T13:38:41;9.88;;;5.30;;
5758;SDS011;2904;48.788;9.196;2022-09-11T13:41:15;6.45;;;4.40;;
5758;SDS011;2904;48.788;9.196;2022-09-11T13:43:47;6.70;;;5.43;;
5758;SDS011;2904;48.788;9.196;2022-09-11T13:46:18;6.05;;;5.43;;
5758;SDS011;2904;48.788;9.196;2022-09-11T13:48:49;9.13;;;4.93;;
5758;SDS011;2904;48.788;9.196;2022-09-11T13:51:18;6.50;;;4.50;;
5758;SDS011;2904;48.788;9.196;2022-09-11T13:53:47;5.47;;;4.40;;
5758;SDS011;2904;48.788;9.196;2022-09-11T14:05:14;7.55;;;5.75;;
5758;SDS011;2904;48.788;9.196;2022-09-11T14:12:54;6.37;;;4.57;;
5758;SDS011;2904;48.788;9.196;2022-09-11T14:15:38;5.93;;;4.35;;
5758;SDS011;2904;48.788;9.196;2022-09-11T14:27:34;5.15;;;4.25;;
5758;SDS011;2904;48.788;9.196;2022-09-11T14:30:21;6.00;;;5.05;;
5758;SDS011;2904;48.788;9.196;2022-09-11T14:37:59;3.72;;;3.15;;
5758;SDS011;2904;48.788;9.196;2022-09-11T14:40:25;4.85;;;3.20;;
5758;SDS011;2904;48.788;9.196;2022-09-11T14:42:50;2.97;;;2.67;;
5758;SDS011;2904;48.788;9.196;2022-09-11T14:45:17;3.75;;;2.87;;
5758;SDS011;2904;48.788;9.196;2022-09-11T14:47:48;2.80;;;2.60;;
5758;SDS011;2904;48.788;9.196;2022-09-11T14:50:33;3.28;;;2.85;;
5758;SDS011;2904;48.788;9.196;2022-09-11T14:52:59;2.80;;;2.60;;
5758;SDS011;2904;48.788;9.196;2022-09-11T14:55:25;2.90;;;2.70;;
5758;SDS011;2904;48.788;9.196;2022-09-11T14:57:51;2.97;;;2.78;;
5758;SDS011;2904;48.788;9.196;2022-09-11T15:00:17;4.00;;;3.12;;
5758;SDS011;2904;48.788;9.196;2022-09-11T15:02:43;3.55;;;3.00;;
5758;SDS011;2904;48.788;9.196;2022-09-11T15:05:14;3.85;;;2.90;;
5758;SDS011;2904;48.788;9.196;2022-09-11T15:07:41;4.00;;;3.60;;
5758;SDS011;2904;48.788;9.196;2022-09-11T15:10:11;2.92;;;2.70;;
5758;SDS011;2904;48.788;9.196;2022-09-11T15:12:37;3.08;;;2.80;;
5758;SDS011;2904;48.788;9.196;2022-09-11T15:15:03;3.47;;;3.17;;
5758;SDS011;2904;48.788;9.196;2022-09-11T15:17:29;3.25;;;2.90;;
5758;SDS011;2904;48.788;9.196;2022-09-11T15:19:55;3.90;;;3.53;;
5758;SDS011;2904;48.788;9.196;2022-09-11T15:22:23;3.22;;;2.97;;
5758;SDS011;2904;48.788;9.196;2022-09-11T15:24:49;6.57;;;3.62;;
5758;SDS011;2904;48.788;9.196;2022-09-11T15:27:15;4.20;;;3.58;;
5758;SDS011;2904;48.788;9.196;2022-09-11T15:29:41;3.55;;;3.25;;
5758;SDS011;2904;48.788;9.196;2022-09-11T15:32:07;3.35;;;3.05;;
5758;SDS011;2904;48.788;9.196;2022-09-11T15:34:34;6.15;;;3.50;;
5758;SDS011;2904;48.788;9.196;2022-09-11T15:37:00;3.72;;;3.37;;
5758;SDS011;2904;48.788;9.196;2022-09-11T15:39:26;4.22;;;3.80;;
5758;SDS011;2904;48.788;9.196;2022-09-11T15:41:53;4.00;;;3.60;;
5758;SDS011;2904;48.788;9.196;2022-09-11T15:44:21;5.57;;;3.47;;
5758;SDS011;2904;48.788;9.196;2022-09-11T15:46:49;3.60;;;3.30;;
5758;SDS011;2904;48.788;9.196;2022-09-11T15:49:16;4.65;;;3.42;;
5758;SDS011;2904;48.788;9.196;2022-09-11T15:51:45;4.10;;;3.60;;
5758;SDS011;2904;48.788;9.196;2022-09-11T15:54:11;3.40;;;3.10;;
5758;SDS011;2904;48.788;9.196;2022-09-11T15:56:39;7.35;;;3.35;;
5758;SDS011;2904;48.788;9.196;2022-09-11T15:59:05;4.47;;;3.67;;
5758;SDS011;2904;48.788;9.196;2022-09-11T16:01:32;7.35;;;4.03;;
5758;SDS011;2904;48.788;9.196;2022-09-11T16:04:02;7.50;;;5.22;;
5758;SDS011;2904;48.788;9.196;2022-09-11T16:06:31;3.33;;;2.75;;
5758;SDS011;2904;48.788;9.196;2022-09-11T16:09:00;3.10;;;2.80;;
5758;SDS011;2904;48.788;9.196;2022-09-11T16:11:28;4.10;;;3.17;;
5758;SDS011;2904;48.788;9.196;2022-09-11T16:13:55;4.00;;;3.45;;
5758;SDS011;2904;48.788;9.196;2022-09-11T16:16:21;4.20;;;3.10;;
5758;SDS011;2904;48.788;9.196;2022-09-11T16:18:48;3.15;;;2.62;;
5758;SDS011;2904;48.788;9.196;2022-09-11T16:21:14;4.32;;;3.00;;
5758;SDS011;2904;48.788;9.196;2022-09-11T16:23:41;2.67;;;2.47;;
5758;SDS011;2904;48.788;9.196;2022-09-11T16:26:09;3.22;;;2.97;;
5758;SDS011;2904;48.788;9.196;2022-09-11T16:28:41;3.35;;;3.05;;
5758;SDS011;2904;48.788;9.196;2022-09-11T16:31:07;3.83;;;3.42;;
5758;SDS011;2904;48.788;9.196;2022-09-11T16:33:35;4.90;;;3.28;;
5758;SDS011;2904;48.788;9.196;2022-09-11T16:36:05;3.50;;;3.20;;
5758;SDS011;2904;48.788;9.196;2022-09-11T16:38:33;4.57;;;3.55;;
5758;SDS011;2904;48.788;9.196;2022-09-11T16:41:10;4.90;;;3.47;;
5758;SDS011;2904;48.788;9.196;2022-09-11T16:43:43;3.72;;;3.37;;
5758;SDS011;2904;48.788;9.196;2022-09-11T16:46:12;3.50;;;3.20;;
5758;SDS011;2904;48.788;9.196;2022-09-11T16:48:40;3.47;;;3.17;;
5758;SDS011;2904;48.788;9.196;2022-09-11T16:51:08;3.85;;;3.30;;
5758;SDS011;2904;48.788;9.196;2022-09-11T16:53:34;3.60;;;3.28;;
5758;SDS011;2904;48.788;9.196;2022-09-11T16:56:04;7.00;;;4.82;;
5758;SDS011;2904;48.788;9.196;2022-09-11T16:58:31;4.30;;;3.22;;
5758;SDS011;2904;48.788;9.196;2022-09-11T17:00:58;5.37;;;3.78;;
5758;SDS011;2904;48.788;9.196;2022-09-11T17:03:28;4.15;;;3.75;;
5758;SDS011;2904;48.788;9.196;2022-09-11T17:05:53;5.07;;;4.07;;
5758;SDS011;2904;48.788;9.196;2022-09-11T17:08:19;5.35;;;4.82;;
5758;SDS011;2904;48.788;9.196;2022-09-11T17:10:46;4.95;;;4.15;;
5758;SDS011;2904;48.788;9.196;2022-09-11T17:13:14;4.37;;;3.97;;
5758;SDS011;2904;48.788;9.196;2022-09-11T17:15:41;4.97;;;4.10;;
5758;SDS011;2904;48.788;9.196;2022-09-11T17:18:07;4.37;;;3.95;;
5758;SDS011;2904;48.788;9.196;2022-09-11T17:20:36;4.45;;;4.00;;
5758;SDS011;2904;48.788;9.196;2022-09-11T17:23:02;4.75;;;4.00;;
5758;SDS011;2904;48.788;9.196;2022-09-11T17:25:29;5.53;;;3.97;;
5758;SDS011;2904;48.788;9.196;2022-09-11T17:27:55;5.03;;;4.50;;
5758;SDS011;2904;48.788;9.196;2022-09-11T17:30:22;5.35;;;4.50;;